Time;durP1;ratioP1;P1;durP2;ratioP2;P2;SDS_P1;SDS_P2;PMS_P1;PMS_P2;Temp;Humidity;BMP_temperature;BMP_pressure;BME280_temperature;BME280_humidity;BME280_pressure;Samples;Min_cycle;Max_cycle;Signal;HPM_P1;HPM_P2
2023/11/16 00:00:12;;;;;;;10.73;8.40;;;7.60;1.00;;;;;;5068648;28;21126;-76
2023/11/16 00:02:41;;;;;;;9.37;8.50;;;7.60;1.00;;;;;;5066876;28;21209;-71
2023/11/16 00:05:12;;;;;;;11.67;8.70;;;7.70;1.00;;;;;;5073070;28;20973;-71
2023/11/16 00:07:40;;;;;;;8.63;7.83;;;7.70;1.00;;;;;;5079497;28;20476;-72
2023/11/16 00:10:11;;;;;;;9.40;8.50;;;7.70;1.00;;;;;;5077820;28;20466;-69
2023/11/16 00:12:39;;;;;;;9.60;8.57;;;7.60;1.00;;;;;;5076614;28;20240;-70
2023/11/16 00:15:07;;;;;;;8.00;7.20;;;7.70;1.00;;;;;;5080759;28;20460;-71
2023/11/16 00:17:35;;;;;;;7.80;7.00;;;7.70;1.00;;;;;;5080257;28;20478;-69
2023/11/16 00:20:02;;;;;;;8.53;7.70;;;7.70;1.00;;;;;;5079302;28;20461;-70
2023/11/16 00:22:30;;;;;;;8.83;7.27;;;7.70;1.00;;;;;;5077020;27;20455;-71
2023/11/16 00:24:58;;;;;;;9.10;7.63;;;7.80;1.00;;;;;;5068660;28;20546;-69
2023/11/16 00:27:25;;;;;;;7.33;6.63;;;7.80;1.00;;;;;;5083652;28;20474;-69
2023/11/16 00:29:53;;;;;;;8.83;7.67;;;7.90;1.00;;;;;;5072461;28;21414;-71
2023/11/16 00:32:20;;;;;;;8.37;7.57;;;7.90;1.00;;;;;;5065905;28;20560;-72
2023/11/16 00:34:48;;;;;;;9.50;8.50;;;7.90;1.00;;;;;;5073561;28;20458;-69
2023/11/16 00:37:15;;;;;;;8.57;7.60;;;7.80;1.00;;;;;;5072420;28;20460;-71
2023/11/16 00:39:43;;;;;;;8.07;7.20;;;7.80;1.00;;;;;;5070987;28;20454;-69
2023/11/16 00:42:10;;;;;;;7.77;6.77;;;7.70;1.00;;;;;;5080925;27;20526;-69
2023/11/16 00:44:38;;;;;;;8.13;7.33;;;7.80;1.00;;;;;;5084577;28;20537;-72
2023/11/16 00:47:06;;;;;;;8.40;7.53;;;7.80;1.00;;;;;;5082413;28;21396;-71
2023/11/16 00:49:32;;;;;;;8.30;7.30;;;7.80;1.00;;;;;;5084848;27;20543;-73
2023/11/16 00:51:59;;;;;;;9.30;7.90;;;7.80;1.00;;;;;;5066282;28;20264;-74
2023/11/16 00:54:26;;;;;;;8.47;7.10;;;7.80;1.00;;;;;;5063227;28;20550;-68
2023/11/16 00:56:54;;;;;;;10.00;7.57;;;7.80;1.00;;;;;;5065311;28;21098;-72
2023/11/16 00:59:22;;;;;;;9.17;7.17;;;7.90;1.00;;;;;;5084033;28;20469;-70
2023/11/16 01:01:50;;;;;;;8.10;7.30;;;7.80;1.00;;;;;;5066598;28;20529;-70
2023/11/16 01:04:19;;;;;;;7.57;6.87;;;7.90;1.00;;;;;;5064583;28;20452;-69
2023/11/16 01:06:46;;;;;;;8.60;7.63;;;8.00;1.00;;;;;;5070984;28;20463;-71
2023/11/16 01:09:13;;;;;;;8.57;6.50;;;7.90;1.00;;;;;;5062117;28;20431;-76
2023/11/16 01:11:40;;;;;;;9.50;7.17;;;7.90;1.00;;;;;;5064383;28;20609;-74
2023/11/16 01:14:09;;;;;;;7.87;7.00;;;7.90;1.00;;;;;;5076434;28;20456;-75
2023/11/16 01:16:40;;;;;;;8.47;7.57;;;7.90;1.00;;;;;;5077093;28;20516;-75
2023/11/16 01:19:08;;;;;;;9.57;7.33;;;7.90;1.00;;;;;;5070043;28;20477;-75
2023/11/16 01:21:41;;;;;;;8.23;6.30;;;7.80;1.00;;;;;;5064448;28;20473;-74
2023/11/16 01:24:09;;;;;;;8.35;6.63;;;7.70;1.00;;;;;;5073126;28;20467;-74
2023/11/16 01:26:39;;;;;;;8.73;7.47;;;7.80;1.00;;;;;;5085838;28;20251;-75
2023/11/16 01:29:16;;;;;;;11.43;6.40;;;7.90;1.00;;;;;;5076802;28;20551;-78
2023/11/16 01:31:43;;;;;;;10.00;7.70;;;7.90;1.00;;;;;;5073667;28;20839;-75
2023/11/16 01:34:10;;;;;;;8.10;7.30;;;7.90;1.00;;;;;;5071717;28;20518;-75
2023/11/16 01:36:37;;;;;;;8.20;6.43;;;7.90;1.00;;;;;;5067501;28;20444;-76
2023/11/16 01:39:04;;;;;;;8.70;6.77;;;7.90;1.00;;;;;;5077138;28;20572;-75
2023/11/16 01:41:31;;;;;;;8.93;7.20;;;8.00;1.00;;;;;;5074731;28;20501;-75
2023/11/16 01:44:00;;;;;;;7.93;6.80;;;8.00;1.00;;;;;;5080246;28;22534;-74
2023/11/16 01:46:33;;;;;;;8.87;7.40;;;7.90;1.00;;;;;;5085412;28;20462;-75
2023/11/16 01:49:01;;;;;;;10.00;6.93;;;7.90;1.00;;;;;;5074887;28;20459;-76
2023/11/16 01:51:30;;;;;;;7.83;6.37;;;7.80;1.00;;;;;;5080450;28;20457;-75
2023/11/16 01:53:59;;;;;;;9.37;7.50;;;7.80;1.00;;;;;;5089320;28;20446;-74
2023/11/16 01:56:31;;;;;;;10.43;7.00;;;7.80;1.00;;;;;;5087910;28;21396;-76
2023/11/16 01:59:01;;;;;;;7.70;6.90;;;7.80;1.00;;;;;;5079886;28;20494;-76
2023/11/16 02:01:32;;;;;;;7.43;6.20;;;7.80;1.00;;;;;;5065579;28;20519;-76
2023/11/16 02:04:04;;;;;;;8.50;6.40;;;7.80;1.00;;;;;;5068513;28;22045;-76
2023/11/16 02:06:31;;;;;;;7.90;6.50;;;7.80;1.00;;;;;;5072503;28;20453;-77
2023/11/16 02:08:59;;;;;;;7.70;6.50;;;7.80;1.00;;;;;;5085951;28;20455;-74
2023/11/16 02:11:27;;;;;;;8.03;6.43;;;7.80;1.00;;;;;;5076858;28;21247;-74
2023/11/16 02:13:54;;;;;;;7.90;6.50;;;7.80;1.00;;;;;;5074825;28;20454;-76
2023/11/16 02:16:20;;;;;;;8.70;6.00;;;7.80;1.00;;;;;;5068542;28;20535;-74
2023/11/16 02:18:49;;;;;;;9.20;6.97;;;7.80;1.00;;;;;;5066707;28;21289;-75
2023/11/16 02:21:17;;;;;;;9.70;6.80;;;7.80;1.00;;;;;;5080455;28;20474;-70
2023/11/16 02:23:48;;;;;;;11.33;6.93;;;7.80;1.00;;;;;;5084211;27;20458;-70
2023/11/16 02:26:15;;;;;;;6.90;6.20;;;7.90;1.00;;;;;;5076568;28;20462;-70
2023/11/16 02:28:42;;;;;;;11.07;7.30;;;8.00;1.00;;;;;;5075459;28;20444;-71
2023/11/16 02:31:09;;;;;;;10.57;6.80;;;7.90;1.00;;;;;;5064676;28;20499;-72
2023/11/16 02:33:36;;;;;;;8.03;6.53;;;8.00;1.00;;;;;;5071120;28;20477;-70
2023/11/16 02:36:03;;;;;;;8.17;6.50;;;8.00;1.00;;;;;;5077705;28;20455;-70
2023/11/16 02:38:30;;;;;;;6.63;5.93;;;8.00;1.00;;;;;;5072824;28;20443;-74
2023/11/16 02:40:59;;;;;;;9.10;6.73;;;7.90;1.00;;;;;;5075959;28;20914;-70
2023/11/16 02:43:28;;;;;;;7.63;6.10;;;7.80;1.00;;;;;;5077058;28;20532;-71
2023/11/16 02:45:55;;;;;;;11.53;6.40;;;7.80;1.00;;;;;;5075421;28;21376;-70
2023/11/16 02:48:22;;;;;;;11.53;6.63;;;7.80;1.00;;;;;;5078367;28;20558;-69
2023/11/16 02:50:49;;;;;;;6.40;5.80;;;7.80;1.00;;;;;;5091232;28;20996;-71
2023/11/16 02:53:16;;;;;;;9.20;5.60;;;7.80;1.00;;;;;;5083556;28;20541;-70
2023/11/16 02:55:43;;;;;;;9.20;6.13;;;7.90;1.00;;;;;;5083249;28;20463;-71
2023/11/16 02:58:11;;;;;;;6.30;5.63;;;7.90;1.00;;;;;;5071283;28;20948;-72
2023/11/16 03:00:38;;;;;;;9.23;5.73;;;7.80;1.00;;;;;;5081271;28;20536;-70
2023/11/16 03:03:05;;;;;;;13.75;7.18;;;7.80;1.00;;;;;;5073786;28;20463;-73
2023/11/16 03:05:33;;;;;;;6.83;6.23;;;7.90;1.00;;;;;;5068117;28;20296;-73
2023/11/16 03:07:59;;;;;;;9.40;6.60;;;8.00;1.00;;;;;;5068506;28;20448;-72
2023/11/16 03:10:28;;;;;;;7.70;6.20;;;8.00;1.00;;;;;;5070450;28;20525;-71
2023/11/16 03:12:56;;;;;;;8.40;6.27;;;7.90;1.00;;;;;;5082341;28;20482;-70
2023/11/16 03:15:24;;;;;;;7.60;5.53;;;7.90;1.00;;;;;;5077972;28;20459;-70
2023/11/16 03:17:51;;;;;;;9.17;6.07;;;8.00;1.00;;;;;;5074911;28;20982;-72
2023/11/16 03:20:18;;;;;;;7.47;6.13;;;8.00;1.00;;;;;;5088771;28;20542;-70
2023/11/16 03:22:45;;;;;;;7.67;6.23;;;8.00;1.00;;;;;;5088077;28;20459;-73
2023/11/16 03:25:14;;;;;;;11.53;5.60;;;8.00;1.00;;;;;;5090372;28;20574;-71
2023/11/16 03:27:42;;;;;;;8.77;5.53;;;8.00;1.00;;;;;;5083036;28;20451;-69
2023/11/16 03:30:16;;;;;;;10.07;5.80;;;8.00;1.00;;;;;;5077167;27;20550;-71
2023/11/16 03:32:44;;;;;;;5.53;4.97;;;8.10;1.00;;;;;;5082323;28;20450;-76
2023/11/16 03:35:13;;;;;;;6.60;5.00;;;8.00;1.00;;;;;;5075207;28;20502;-75
2023/11/16 03:37:43;;;;;;;10.23;5.40;;;8.10;1.00;;;;;;5082825;28;20456;-75
2023/11/16 03:40:12;;;;;;;6.63;5.10;;;8.10;1.00;;;;;;5080557;28;20483;-74
2023/11/16 03:42:39;;;;;;;6.57;5.07;;;8.00;1.00;;;;;;5073674;28;21225;-74
2023/11/16 03:45:07;;;;;;;5.60;5.00;;;8.00;1.00;;;;;;5072234;28;21081;-75
2023/11/16 03:47:35;;;;;;;10.33;5.60;;;8.00;1.00;;;;;;5075487;28;20544;-74
2023/11/16 03:50:04;;;;;;;8.93;4.90;;;7.90;1.00;;;;;;5085323;28;21340;-75
2023/11/16 03:52:31;;;;;;;9.77;5.40;;;7.90;1.00;;;;;;5081110;28;20495;-75
2023/11/16 03:54:58;;;;;;;7.80;5.60;;;7.90;1.00;;;;;;5070924;28;20520;-74
2023/11/16 03:57:25;;;;;;;6.93;5.00;;;7.90;1.00;;;;;;5077018;27;20431;-76
2023/11/16 03:59:52;;;;;;;6.57;4.77;;;8.00;1.00;;;;;;5090086;28;20475;-77
2023/11/16 04:02:19;;;;;;;6.40;4.90;;;8.00;1.00;;;;;;5068692;28;20463;-75
2023/11/16 04:04:47;;;;;;;9.70;5.53;;;8.00;1.00;;;;;;5068071;28;20492;-75
2023/11/16 04:07:16;;;;;;;8.07;4.43;;;8.00;1.00;;;;;;5063028;28;21228;-73
2023/11/16 04:09:43;;;;;;;16.13;4.87;;;8.00;1.00;;;;;;5080062;28;20559;-76
2023/11/16 04:12:10;;;;;;;8.70;5.30;;;8.00;1.00;;;;;;5081911;28;20522;-74
2023/11/16 04:14:40;;;;;;;6.67;4.50;;;8.00;1.00;;;;;;5067773;28;20521;-74
2023/11/16 04:17:09;;;;;;;7.83;5.30;;;8.10;1.00;;;;;;5078468;28;20464;-76
2023/11/16 04:19:36;;;;;;;12.47;5.40;;;8.00;1.00;;;;;;5090602;28;20485;-76
2023/11/16 04:22:07;;;;;;;6.70;4.83;;;8.10;1.00;;;;;;5091839;28;20435;-75
2023/11/16 04:24:42;;;;;;;6.80;4.40;;;8.00;1.00;;;;;;5085118;27;20414;-74
2023/11/16 04:27:09;;;;;;;6.80;4.00;;;8.00;1.00;;;;;;5100104;27;20434;-75
2023/11/16 04:29:38;;;;;;;7.78;4.15;;;8.00;1.00;;;;;;5079840;28;20561;-75
2023/11/16 04:32:05;;;;;;;6.87;4.30;;;8.00;1.00;;;;;;5085726;28;20232;-76
2023/11/16 04:34:33;;;;;;;5.63;4.13;;;8.00;1.00;;;;;;5070242;27;20479;-73
2023/11/16 04:37:01;;;;;;;5.67;4.50;;;7.90;1.00;;;;;;5079589;28;20864;-75
2023/11/16 04:39:27;;;;;;;5.23;3.80;;;7.90;1.00;;;;;;5072130;28;20489;-81
2023/11/16 04:41:56;;;;;;;6.83;3.93;;;7.80;1.00;;;;;;5076022;28;20911;-70
2023/11/16 04:44:23;;;;;;;5.27;4.27;;;7.80;1.00;;;;;;5073724;28;20467;-71
2023/11/16 04:46:50;;;;;;;6.93;4.27;;;7.80;1.00;;;;;;5066799;28;20537;-71
2023/11/16 04:49:16;;;;;;;8.17;4.30;;;7.80;1.00;;;;;;5074074;28;20478;-70
2023/11/16 04:51:44;;;;;;;8.40;4.00;;;7.80;1.00;;;;;;5070012;28;20513;-70
2023/11/16 04:54:11;;;;;;;4.60;3.70;;;7.80;1.00;;;;;;5057616;28;20248;-71
2023/11/16 04:56:38;;;;;;;6.50;5.63;;;7.90;1.00;;;;;;5069139;28;20462;-68
2023/11/16 04:59:08;;;;;;;4.67;3.90;;;7.90;1.00;;;;;;5077566;28;21014;-71
2023/11/16 05:01:35;;;;;;;5.33;3.73;;;7.80;1.00;;;;;;5075432;28;20463;-70
2023/11/16 05:04:02;;;;;;;7.80;4.10;;;7.90;1.00;;;;;;5061554;28;20980;-78
2023/11/16 05:06:29;;;;;;;7.00;4.90;;;7.80;1.00;;;;;;5065666;28;20448;-73
2023/11/16 05:08:57;;;;;;;12.30;4.93;;;7.80;1.00;;;;;;5076772;28;20472;-70
2023/11/16 05:11:24;;;;;;;11.67;4.77;;;7.80;1.00;;;;;;5065683;28;20459;-72
2023/11/16 05:13:51;;;;;;;5.47;4.50;;;7.80;1.00;;;;;;5074518;28;20540;-72
2023/11/16 05:16:20;;;;;;;5.00;4.33;;;7.80;1.00;;;;;;5087916;28;20462;-72
2023/11/16 05:18:47;;;;;;;7.33;4.27;;;7.80;1.00;;;;;;5070409;28;20476;-68
2023/11/16 05:21:14;;;;;;;4.77;4.10;;;7.80;1.00;;;;;;5073234;28;20561;-68
2023/11/16 05:23:42;;;;;;;6.43;4.23;;;7.80;1.00;;;;;;5083111;28;20450;-71
2023/11/16 05:26:09;;;;;;;5.63;4.10;;;7.80;1.00;;;;;;5080642;28;20546;-71
2023/11/16 05:28:36;;;;;;;8.23;4.20;;;7.90;1.00;;;;;;5076184;28;20523;-69
2023/11/16 05:31:04;;;;;;;5.70;4.70;;;7.90;1.00;;;;;;5066864;28;21220;-70
2023/11/16 05:33:33;;;;;;;5.03;4.53;;;7.90;1.00;;;;;;5081054;28;20473;-69
2023/11/16 05:36:01;;;;;;;6.77;4.70;;;8.00;1.00;;;;;;5068426;28;20493;-73
2023/11/16 05:38:28;;;;;;;7.67;5.17;;;8.00;1.00;;;;;;5066163;28;20967;-70
2023/11/16 05:40:55;;;;;;;8.27;4.70;;;8.00;1.00;;;;;;5070881;28;20446;-70
2023/11/16 05:43:22;;;;;;;8.23;5.33;;;8.10;1.00;;;;;;5090687;28;21232;-69
2023/11/16 05:45:49;;;;;;;5.83;4.47;;;8.00;1.00;;;;;;5085486;28;20486;-70
2023/11/16 05:48:16;;;;;;;8.10;3.97;;;8.10;1.00;;;;;;5080226;28;20480;-70
2023/11/16 05:50:46;;;;;;;6.57;4.37;;;8.10;1.00;;;;;;5079250;28;20455;-71
2023/11/16 05:53:13;;;;;;;5.07;4.57;;;8.10;1.00;;;;;;5080551;27;20564;-76
2023/11/16 05:55:40;;;;;;;9.20;4.77;;;8.00;1.00;;;;;;5068794;28;20481;-76
2023/11/16 05:58:07;;;;;;;4.57;4.03;;;8.00;1.00;;;;;;5066893;28;21807;-76
2023/11/16 06:00:36;;;;;;;8.60;5.40;;;7.90;1.00;;;;;;5083581;28;20472;-75
2023/11/16 06:03:08;;;;;;;7.50;4.93;;;7.90;1.00;;;;;;5067937;28;20443;-75
2023/11/16 06:05:35;;;;;;;7.80;4.97;;;7.90;1.00;;;;;;5069813;28;20462;-77
2023/11/16 06:08:04;;;;;;;7.57;4.60;;;7.90;1.00;;;;;;5071585;28;20603;-79
2023/11/16 06:10:31;;;;;;;6.03;4.70;;;7.80;1.00;;;;;;5078167;28;20582;-76
2023/11/16 06:12:59;;;;;;;6.87;5.03;;;7.80;1.00;;;;;;5079354;28;20459;-74
2023/11/16 06:15:28;;;;;;;6.87;4.87;;;7.90;1.00;;;;;;5078223;28;20523;-76
2023/11/16 06:17:55;;;;;;;7.77;4.47;;;7.90;1.00;;;;;;5074350;28;20518;-77
2023/11/16 06:20:22;;;;;;;8.90;4.80;;;7.90;1.00;;;;;;5073793;28;21721;-75
2023/11/16 06:22:50;;;;;;;9.50;5.10;;;8.00;1.00;;;;;;5065811;28;20482;-78
2023/11/16 06:25:19;;;;;;;5.60;4.67;;;8.00;1.00;;;;;;5067301;28;20462;-77
2023/11/16 06:27:46;;;;;;;6.43;4.57;;;8.00;1.00;;;;;;5080749;28;20550;-77
2023/11/16 06:30:14;;;;;;;5.30;4.67;;;8.00;1.00;;;;;;5085975;28;20473;-77
2023/11/16 06:32:42;;;;;;;6.53;4.47;;;8.00;1.00;;;;;;5070380;28;21257;-75
2023/11/16 06:35:10;;;;;;;6.83;5.27;;;8.00;1.00;;;;;;5070044;28;20554;-77
2023/11/16 06:37:37;;;;;;;9.70;4.90;;;8.00;1.00;;;;;;5086557;28;20553;-77
2023/11/16 06:40:07;;;;;;;7.17;4.53;;;8.00;1.00;;;;;;5080805;27;20463;-76
2023/11/16 06:42:36;;;;;;;7.97;4.40;;;8.00;1.00;;;;;;5085512;28;20500;-77
2023/11/16 06:45:04;;;;;;;5.73;4.10;;;8.00;1.00;;;;;;5092373;28;20453;-77
2023/11/16 06:47:32;;;;;;;6.77;4.13;;;8.00;1.00;;;;;;5070121;28;20474;-77
2023/11/16 06:49:59;;;;;;;10.93;5.57;;;8.00;1.00;;;;;;5081160;28;20470;-75
2023/11/16 06:52:26;;;;;;;5.00;4.50;;;8.00;1.00;;;;;;5061094;28;20562;-76
2023/11/16 06:54:54;;;;;;;4.93;4.50;;;8.00;1.00;;;;;;5093405;28;20520;-77
2023/11/16 06:57:26;;;;;;;4.43;3.90;;;8.00;1.00;;;;;;5085387;28;20565;-78
2023/11/16 06:59:54;;;;;;;12.57;4.80;;;8.00;1.00;;;;;;5073571;28;20443;-76
2023/11/16 07:02:22;;;;;;;9.70;4.80;;;8.00;1.00;;;;;;5084663;27;20469;-72
2023/11/16 07:04:51;;;;;;;9.23;4.03;;;8.00;1.00;;;;;;5080885;28;20550;-73
2023/11/16 07:07:18;;;;;;;6.83;4.10;;;8.00;1.00;;;;;;5063810;28;20490;-74
2023/11/16 07:09:46;;;;;;;5.77;3.90;;;8.00;1.00;;;;;;5081318;28;20504;-72
2023/11/16 07:12:14;;;;;;;4.20;3.80;;;8.10;1.00;;;;;;5065629;28;20460;-73
2023/11/16 07:14:41;;;;;;;8.00;3.50;;;8.10;1.00;;;;;;5073451;28;21031;-74
2023/11/16 07:17:11;;;;;;;4.50;3.63;;;8.10;1.00;;;;;;5078335;27;20979;-71
2023/11/16 07:19:40;;;;;;;6.50;3.77;;;8.10;1.00;;;;;;5071261;27;20465;-71
2023/11/16 07:22:08;;;;;;;6.17;3.63;;;8.20;1.00;;;;;;5088665;28;21381;-73
2023/11/16 07:24:36;;;;;;;5.40;3.00;;;8.20;1.00;;;;;;5090843;28;20453;-72
2023/11/16 07:27:03;;;;;;;7.73;3.37;;;8.30;1.00;;;;;;5090624;28;20477;-72
2023/11/16 07:29:31;;;;;;;6.40;3.77;;;8.30;1.00;;;;;;5087685;27;20455;-73
2023/11/16 07:31:58;;;;;;;3.80;3.23;;;8.30;1.00;;;;;;5089374;28;20487;-74
2023/11/16 07:34:27;;;;;;;5.77;4.30;;;8.40;1.00;;;;;;5090365;28;21205;-71
2023/11/16 07:36:54;;;;;;;5.63;3.27;;;8.40;1.00;;;;;;5090731;28;20546;-72
2023/11/16 07:39:21;;;;;;;3.10;2.80;;;8.50;1.00;;;;;;5070603;28;20456;-72
2023/11/16 07:41:50;;;;;;;7.63;3.90;;;8.60;1.00;;;;;;5066229;28;20498;-75
2023/11/16 07:44:18;;;;;;;4.97;3.80;;;8.70;1.00;;;;;;5065675;28;20819;-72
2023/11/16 07:46:45;;;;;;;4.00;3.60;;;8.70;1.00;;;;;;5067544;28;20480;-72
2023/11/16 07:49:12;;;;;;;7.87;3.40;;;8.80;1.00;;;;;;5075880;28;20949;-71
2023/11/16 07:51:42;;;;;;;8.27;4.50;;;8.80;1.00;;;;;;5084596;28;20641;-75
2023/11/16 07:54:11;;;;;;;4.60;3.73;;;8.90;1.00;;;;;;5087734;27;20912;-72
2023/11/16 07:56:39;;;;;;;3.77;3.47;;;8.90;1.00;;;;;;5066595;28;20480;-73
2023/11/16 07:59:08;;;;;;;7.47;3.63;;;8.90;1.00;;;;;;5069128;28;20478;-73
2023/11/16 08:01:40;;;;;;;5.70;3.70;;;8.70;1.00;;;;;;5069134;28;20443;-70
2023/11/16 08:04:06;;;;;;;5.30;3.70;;;8.60;1.00;;;;;;5071812;28;21050;-73
2023/11/16 08:06:35;;;;;;;4.10;3.00;;;8.60;1.00;;;;;;5079614;28;20458;-72
2023/11/16 08:09:05;;;;;;;6.70;3.40;;;8.60;1.00;;;;;;5072863;28;21124;-70
2023/11/16 08:11:35;;;;;;;5.60;3.40;;;8.60;1.00;;;;;;5069345;28;20547;-73
2023/11/16 08:14:06;;;;;;;7.57;3.60;;;8.60;1.00;;;;;;5083374;28;20426;-72
2023/11/16 08:16:34;;;;;;;9.80;3.30;;;8.60;1.00;;;;;;5088212;27;20463;-72
2023/11/16 08:19:01;;;;;;;5.70;3.53;;;8.50;1.00;;;;;;5073282;28;20452;-72
2023/11/16 08:21:28;;;;;;;4.20;2.93;;;8.40;1.00;;;;;;5078947;28;20509;-71
2023/11/16 08:23:56;;;;;;;4.30;2.87;;;8.40;1.00;;;;;;5067820;28;20435;-71
2023/11/16 08:26:25;;;;;;;4.90;3.70;;;8.30;1.00;;;;;;5076277;28;20556;-72
2023/11/16 08:28:53;;;;;;;6.73;3.43;;;8.20;1.00;;;;;;5067462;28;22368;-72
2023/11/16 08:31:20;;;;;;;4.50;3.23;;;8.20;1.00;;;;;;5065458;28;21817;-69
2023/11/16 08:33:47;;;;;;;4.93;3.27;;;8.20;1.00;;;;;;5081828;28;20485;-73
2023/11/16 08:36:16;;;;;;;4.77;3.27;;;8.20;1.00;;;;;;5088487;27;20457;-71
2023/11/16 08:38:45;;;;;;;3.67;3.33;;;8.30;1.00;;;;;;5070642;28;20446;-73
2023/11/16 08:41:15;;;;;;;4.73;3.77;;;8.30;1.00;;;;;;5073613;28;20470;-73
2023/11/16 08:43:45;;;;;;;8.60;4.27;;;8.40;1.00;;;;;;5077092;28;20550;-71
2023/11/16 08:46:20;;;;;;;7.87;3.57;;;8.60;1.00;;;;;;5082616;28;20985;-71
2023/11/16 08:48:47;;;;;;;4.30;2.97;;;8.60;1.00;;;;;;5075879;28;20576;-76
2023/11/16 08:51:16;;;;;;;5.43;3.93;;;8.60;1.00;;;;;;5075917;28;20435;-71
2023/11/16 08:53:44;;;;;;;7.03;3.97;;;8.60;1.00;;;;;;5067823;28;20999;-70
2023/11/16 08:56:12;;;;;;;6.70;3.87;;;8.60;1.00;;;;;;5076464;28;20516;-71
2023/11/16 08:58:47;;;;;;;3.20;2.90;;;8.60;1.00;;;;;;5066994;28;20545;-72
2023/11/16 09:01:17;;;;;;;6.60;3.50;;;8.60;1.00;;;;;;5084447;28;20556;-73
2023/11/16 09:03:49;;;;;;;5.20;3.50;;;8.60;1.00;;;;;;5087473;28;20989;-71
2023/11/16 09:06:18;;;;;;;6.00;4.13;;;8.60;1.00;;;;;;5074057;27;20456;-72
2023/11/16 09:08:45;;;;;;;5.23;3.17;;;8.50;1.00;;;;;;5088954;27;20455;-70
2023/11/16 09:11:16;;;;;;;5.53;2.90;;;8.50;1.00;;;;;;5087555;28;20446;-72
2023/11/16 09:13:44;;;;;;;4.23;2.90;;;8.50;1.00;;;;;;5076748;27;20475;-72
2023/11/16 09:16:11;;;;;;;6.07;3.00;;;8.50;1.00;;;;;;5073258;28;20617;-72
2023/11/16 09:18:41;;;;;;;3.50;2.87;;;8.50;1.00;;;;;;5071562;28;21185;-72
2023/11/16 09:21:09;;;;;;;5.70;3.47;;;8.50;1.00;;;;;;5080296;28;20632;-75
2023/11/16 09:23:37;;;;;;;6.40;3.07;;;8.50;1.00;;;;;;5078121;28;20430;-71
2023/11/16 09:26:04;;;;;;;3.40;2.60;;;8.50;1.00;;;;;;5081823;28;20988;-72
2023/11/16 09:28:35;;;;;;;4.73;3.07;;;8.40;1.00;;;;;;5081118;28;20534;-73
2023/11/16 09:31:02;;;;;;;4.50;3.03;;;8.50;1.00;;;;;;5067611;28;20463;-70
2023/11/16 09:33:29;;;;;;;7.70;2.53;;;8.50;1.00;;;;;;5063988;28;20543;-71
2023/11/16 09:35:58;;;;;;;7.43;3.30;;;8.50;1.00;;;;;;5073838;28;20477;-71
2023/11/16 09:38:25;;;;;;;4.60;3.23;;;8.60;1.00;;;;;;5065954;28;20551;-73
2023/11/16 09:40:52;;;;;;;3.80;2.50;;;8.60;1.00;;;;;;5065980;28;20510;-73
2023/11/16 09:43:20;;;;;;;2.87;2.10;;;8.70;1.00;;;;;;5069192;28;20472;-71
2023/11/16 09:45:50;;;;;;;6.30;2.70;;;8.80;1.00;;;;;;5080227;28;20497;-71
2023/11/16 09:48:20;;;;;;;3.70;2.30;;;8.80;1.00;;;;;;5080782;28;20558;-72
2023/11/16 09:50:48;;;;;;;6.87;3.07;;;8.80;1.00;;;;;;5074065;28;20471;-71
2023/11/16 09:53:20;;;;;;;3.60;2.40;;;8.90;1.00;;;;;;5075274;28;20478;-71
2023/11/16 09:55:50;;;;;;;5.17;2.40;;;9.10;1.00;;;;;;5082213;28;20541;-70
2023/11/16 09:58:23;;;;;;;4.60;2.50;;;9.30;1.00;;;;;;5074542;28;20474;-70
2023/11/16 10:00:55;;;;;;;2.50;2.30;;;9.40;1.00;;;;;;5066018;28;20459;-70
2023/11/16 10:03:26;;;;;;;6.07;2.30;;;9.60;1.00;;;;;;5073618;28;20904;-69
2023/11/16 10:05:55;;;;;;;5.70;2.50;;;9.80;1.00;;;;;;5072434;28;20494;-72
2023/11/16 10:08:27;;;;;;;5.23;3.00;;;10.20;1.00;;;;;;5086271;28;20454;-71
2023/11/16 10:11:00;;;;;;;3.50;2.43;;;10.60;1.00;;;;;;5079767;28;20481;-72
2023/11/16 10:13:27;;;;;;;5.10;2.30;;;10.70;1.00;;;;;;5078787;28;20455;-72
2023/11/16 10:16:02;;;;;;;5.80;2.10;;;10.60;1.00;;;;;;5066145;28;20607;-70
2023/11/16 10:18:30;;;;;;;3.33;1.97;;;10.60;1.00;;;;;;5067700;28;20450;-72
2023/11/16 10:20:57;;;;;;;3.37;1.20;;;10.90;1.00;;;;;;5077057;28;20477;-70
2023/11/16 10:23:29;;;;;;;1.70;1.40;;;10.90;1.00;;;;;;5079030;28;20505;-72
2023/11/16 10:25:59;;;;;;;3.43;2.10;;;10.80;1.00;;;;;;5065921;28;20546;-71
2023/11/16 10:28:26;;;;;;;4.90;1.70;;;10.70;1.00;;;;;;5077574;28;20523;-72
2023/11/16 10:30:58;;;;;;;3.63;1.13;;;10.60;1.00;;;;;;5084617;28;20457;-70
2023/11/16 10:33:28;;;;;;;1.40;1.30;;;10.50;1.00;;;;;;5069911;28;21119;-71
2023/11/16 10:35:56;;;;;;;1.60;0.80;;;10.30;1.00;;;;;;5088855;28;20514;-74
2023/11/16 10:38:27;;;;;;;1.90;0.90;;;10.30;1.00;;;;;;5088360;28;20538;-73
2023/11/16 10:40:55;;;;;;;4.67;2.00;;;10.40;1.00;;;;;;5083075;28;20510;-76
2023/11/16 10:43:25;;;;;;;1.57;0.90;;;10.60;1.00;;;;;;5069461;28;20901;-72
2023/11/16 10:45:53;;;;;;;2.63;0.90;;;10.80;1.00;;;;;;5064981;28;21016;-72
2023/11/16 10:48:20;;;;;;;3.30;0.90;;;11.50;1.00;;;;;;5073469;28;20515;-71
2023/11/16 10:50:47;;;;;;;1.17;0.70;;;12.40;1.00;;;;;;5070642;28;20464;-74
2023/11/16 10:53:18;;;;;;;1.00;0.90;;;12.40;1.00;;;;;;5080745;28;20438;-76
2023/11/16 10:55:50;;;;;;;1.93;1.00;;;12.10;1.00;;;;;;5080330;28;20497;-75
2023/11/16 10:58:25;;;;;;;1.90;0.80;;;11.90;1.00;;;;;;5085021;28;20505;-74
2023/11/16 11:00:53;;;;;;;0.90;0.77;;;11.80;1.00;;;;;;5072947;28;20428;-73
2023/11/16 11:03:22;;;;;;;0.90;0.57;;;11.30;1.00;;;;;;5070158;28;20463;-72
2023/11/16 11:05:52;;;;;;;1.23;0.87;;;10.90;1.00;;;;;;5064044;28;20483;-74
2023/11/16 11:08:20;;;;;;;1.23;0.60;;;10.70;1.00;;;;;;5060251;28;20960;-78
2023/11/16 11:10:49;;;;;;;1.10;0.70;;;10.70;1.00;;;;;;5064819;28;20944;-74
2023/11/16 11:13:25;;;;;;;0.97;0.80;;;10.60;1.00;;;;;;5084946;28;21143;-74
2023/11/16 11:15:55;;;;;;;2.03;1.00;;;10.50;1.00;;;;;;5074750;28;21127;-74
2023/11/16 11:18:26;;;;;;;2.17;0.80;;;10.50;1.00;;;;;;5079598;28;20902;-73
2023/11/16 11:20:53;;;;;;;1.10;0.90;;;10.30;1.00;;;;;;5077472;28;20478;-74
2023/11/16 11:23:20;;;;;;;0.80;0.80;;;10.20;1.00;;;;;;5089612;27;20474;-73
2023/11/16 11:25:49;;;;;;;3.07;1.00;;;10.30;1.00;;;;;;5092321;28;20579;-71
2023/11/16 11:28:17;;;;;;;1.10;0.63;;;10.30;1.00;;;;;;5092145;28;20427;-73
2023/11/16 11:30:53;;;;;;;1.00;0.90;;;10.20;1.00;;;;;;5089383;28;21932;-74
2023/11/16 11:33:28;;;;;;;1.43;0.90;;;10.40;1.00;;;;;;5091603;27;20589;-73
2023/11/16 11:35:56;;;;;;;2.40;0.90;;;10.50;1.00;;;;;;5090605;28;20543;-73
2023/11/16 11:38:27;;;;;;;0.90;0.60;;;10.50;1.00;;;;;;5070213;28;20431;-73
2023/11/16 11:41:08;;;;;;;1.20;0.90;;;10.60;1.00;;;;;;5075490;28;20424;-75
2023/11/16 11:43:38;;;;;;;3.03;0.73;;;10.80;1.00;;;;;;5090406;28;21211;-75
2023/11/16 11:46:08;;;;;;;1.67;0.77;;;10.90;1.00;;;;;;5089887;28;20458;-74
2023/11/16 11:48:36;;;;;;;1.83;0.80;;;11.80;1.00;;;;;;5089399;27;20465;-74
2023/11/16 11:51:06;;;;;;;1.67;0.90;;;12.70;1.00;;;;;;5074008;28;20459;-72
2023/11/16 11:53:33;;;;;;;3.90;1.13;;;14.20;1.00;;;;;;5088046;28;20708;-73
2023/11/16 11:56:06;;;;;;;1.10;1.00;;;15.00;1.00;;;;;;5085869;28;20484;-73
2023/11/16 11:58:35;;;;;;;1.73;0.90;;;14.80;1.00;;;;;;5076733;28;20834;-75
2023/11/16 12:01:03;;;;;;;2.17;1.17;;;13.90;1.00;;;;;;5076003;27;20463;-72
2023/11/16 12:03:33;;;;;;;1.10;0.70;;;13.40;1.00;;;;;;5068990;28;20978;-73
2023/11/16 12:06:02;;;;;;;6.30;2.20;;;13.00;1.00;;;;;;5054750;28;20467;-73
2023/11/16 12:08:42;;;;;;;1.97;1.53;;;13.20;1.00;;;;;;5080375;28;20964;-73
2023/11/16 12:11:11;;;;;;;2.13;1.07;;;13.30;1.00;;;;;;5079110;28;20712;-74
2023/11/16 12:13:38;;;;;;;1.07;0.83;;;13.40;1.00;;;;;;5078921;28;20550;-74
2023/11/16 12:16:07;;;;;;;2.30;0.83;;;14.20;1.00;;;;;;5076391;28;20513;-73
2023/11/16 12:18:35;;;;;;;1.00;0.73;;;14.90;1.00;;;;;;5069281;28;20525;-73
2023/11/16 12:21:02;;;;;;;2.90;1.70;;;15.60;1.00;;;;;;5079333;28;20491;-75
2023/11/16 12:23:31;;;;;;;2.37;0.70;;;15.90;1.00;;;;;;5081019;28;20466;-74
2023/11/16 12:26:02;;;;;;;1.80;0.80;;;16.10;1.00;;;;;;5075111;28;20482;-73
2023/11/16 12:28:34;;;;;;;2.50;1.00;;;16.40;1.00;;;;;;5087867;28;20548;-75
2023/11/16 12:31:01;;;;;;;1.23;0.60;;;15.90;1.00;;;;;;5077627;28;20474;-74
2023/11/16 12:33:30;;;;;;;1.47;0.70;;;14.80;1.00;;;;;;5090070;28;20477;-71
2023/11/16 12:35:57;;;;;;;2.90;0.90;;;13.80;1.00;;;;;;5087040;28;20470;-74
2023/11/16 12:38:24;;;;;;;2.63;1.17;;;13.30;1.00;;;;;;5073399;28;20475;-73
2023/11/16 12:40:51;;;;;;;2.40;0.93;;;12.90;1.00;;;;;;5080344;28;20484;-74
2023/11/16 12:43:20;;;;;;;4.33;2.23;;;12.80;1.00;;;;;;5072568;28;20466;-75
2023/11/16 12:45:49;;;;;;;1.57;0.90;;;13.40;1.00;;;;;;5080059;28;20506;-74
2023/11/16 12:48:17;;;;;;;2.67;1.00;;;15.40;1.00;;;;;;5072356;28;20459;-71
2023/11/16 12:50:46;;;;;;;5.20;1.30;;;17.30;1.00;;;;;;5089599;28;20467;-71
2023/11/16 12:53:13;;;;;;;0.90;0.73;;;16.80;1.00;;;;;;5089254;28;20975;-73
2023/11/16 12:55:40;;;;;;;3.13;0.70;;;15.40;1.00;;;;;;5082701;28;20466;-73
2023/11/16 12:58:09;;;;;;;0.90;0.63;;;14.80;1.00;;;;;;5090119;27;20453;-71
2023/11/16 13:00:36;;;;;;;3.40;1.13;;;14.30;1.00;;;;;;5070846;28;20469;-70
2023/11/16 13:03:05;;;;;;;1.50;0.80;;;13.60;1.00;;;;;;5080011;28;20466;-72
2023/11/16 13:05:34;;;;;;;4.40;1.10;;;12.90;1.00;;;;;;5079492;28;20481;-73
2023/11/16 13:08:01;;;;;;;2.20;1.10;;;12.40;1.00;;;;;;5071086;28;20461;-72
2023/11/16 13:10:28;;;;;;;2.60;0.80;;;12.00;1.00;;;;;;5069704;28;20440;-72